Pagrindinis puslapis
METAR-TAF:

METAR-TAF

Oro uostai :

Guadalupe Mountains National Park

Pine Springs, Teksasas, Jungtinės Amerikos Valstijos

platuma: 31-49-52N, ilguma: 104-48-32W, Aukštis: 1661 m

Dabartinis oras

Ataskaita buvo paskelbta 6 valandos ir 34 minutes, ne 20:58 UTC
Vėjas 21 kt iš Rytų/Šiaurės Rytų
Temperatūra 19°C
Drėgmė 52%
Slėgis 1025 hPa
Matomumas: 12.9 km
Giedras dangus

METAR: KGDP 132058Z AUTO 07021KT 8SM CLR 19/09 A3026 RMK AO2 T01890089

Laikas: 22:32 (03:32 UTC)


TAF: trūkstamas

Orai ataskaitas ir orų prognozės (METAR, TAF).

turimą stotys yra geltonos ir raudonos taškus žemėlapyje.

Perkelti pele per norėdami pamatyti stoties vardą.

Tada spustelėkite, norėdami matyti oro stebėjimo ir prognozės.

Norėdami pakeisti žemėlapį: spustelėkite ant žalios mygtukų su juodo kryžiaus žemyn,; žalią mygtuką su brūkšneliu, jei norite nutolinti; arba žalių rodyklių gretimoms žemėlapius.


METAR-TAF: